sensor_id;sensor_type;location;lat;lon;timestamp;P1;durP1;ratioP1;P2;durP2;ratioP2
41755;SDS011;27435;48.480;9.258;2022-10-30T00:00:06;12.40;;;3.95;;
41755;SDS011;27435;48.480;9.258;2022-10-30T00:02:32;10.48;;;3.35;;
41755;SDS011;27435;48.480;9.258;2022-10-30T00:04:58;14.93;;;3.58;;
41755;SDS011;27435;48.480;9.258;2022-10-30T00:07:23;14.27;;;3.47;;
41755;SDS011;27435;48.480;9.258;2022-10-30T00:09:49;11.65;;;3.83;;
41755;SDS011;27435;48.480;9.258;2022-10-30T00:12:14;10.13;;;3.40;;
41755;SDS011;27435;48.480;9.258;2022-10-30T00:14:40;12.60;;;3.38;;
41755;SDS011;27435;48.480;9.258;2022-10-30T00:17:05;15.23;;;3.97;;
41755;SDS011;27435;48.480;9.258;2022-10-30T00:19:31;11.77;;;4.07;;
41755;SDS011;27435;48.480;9.258;2022-10-30T00:21:56;15.30;;;3.90;;
41755;SDS011;27435;48.480;9.258;2022-10-30T00:24:23;16.83;;;4.97;;
41755;SDS011;27435;48.480;9.258;2022-10-30T00:26:48;17.33;;;3.90;;
41755;SDS011;27435;48.480;9.258;2022-10-30T00:29:14;15.07;;;3.90;;
41755;SDS011;27435;48.480;9.258;2022-10-30T00:31:40;11.55;;;3.97;;
41755;SDS011;27435;48.480;9.258;2022-10-30T00:34:05;16.40;;;4.88;;
41755;SDS011;27435;48.480;9.258;2022-10-30T00:36:31;16.63;;;4.80;;
41755;SDS011;27435;48.480;9.258;2022-10-30T00:38:57;19.27;;;4.03;;
41755;SDS011;27435;48.480;9.258;2022-10-30T00:41:23;11.73;;;3.40;;
41755;SDS011;27435;48.480;9.258;2022-10-30T00:43:49;9.15;;;3.70;;
41755;SDS011;27435;48.480;9.258;2022-10-30T00:46:36;13.00;;;3.37;;
41755;SDS011;27435;48.480;9.258;2022-10-30T00:49:16;15.50;;;3.63;;
41755;SDS011;27435;48.480;9.258;2022-10-30T00:51:47;12.70;;;4.20;;
41755;SDS011;27435;48.480;9.258;2022-10-30T00:54:16;13.23;;;3.30;;
41755;SDS011;27435;48.480;9.258;2022-10-30T00:56:43;12.30;;;3.77;;
41755;SDS011;27435;48.480;9.258;2022-10-30T00:59:12;12.03;;;3.90;;
41755;SDS011;27435;48.480;9.258;2022-10-30T01:01:43;14.33;;;3.50;;
41755;SDS011;27435;48.480;9.258;2022-10-30T01:04:10;15.18;;;3.58;;
41755;SDS011;27435;48.480;9.258;2022-10-30T01:06:38;11.57;;;3.72;;
41755;SDS011;27435;48.480;9.258;2022-10-30T01:09:06;17.67;;;3.40;;
41755;SDS011;27435;48.480;9.258;2022-10-30T01:11:32;13.15;;;3.35;;
41755;SDS011;27435;48.480;9.258;2022-10-30T01:13:59;12.13;;;3.65;;
41755;SDS011;27435;48.480;9.258;2022-10-30T01:21:56;13.17;;;2.77;;
41755;SDS011;27435;48.480;9.258;2022-10-30T01:30:14;11.27;;;3.15;;
41755;SDS011;27435;48.480;9.258;2022-10-30T01:36:48;15.05;;;2.90;;
41755;SDS011;27435;48.480;9.258;2022-10-30T01:38:50;10.30;;;2.43;;
41755;SDS011;27435;48.480;9.258;2022-10-30T01:41:23;12.73;;;4.57;;
41755;SDS011;27435;48.480;9.258;2022-10-30T01:43:49;14.87;;;3.30;;
41755;SDS011;27435;48.480;9.258;2022-10-30T01:49:26;14.67;;;2.83;;
41755;SDS011;27435;48.480;9.258;2022-10-30T01:59:57;11.80;;;3.93;;
41755;SDS011;27435;48.480;9.258;2022-10-30T02:02:29;14.27;;;3.13;;
41755;SDS011;27435;48.480;9.258;2022-10-30T02:04:57;22.20;;;4.93;;
41755;SDS011;27435;48.480;9.258;2022-10-30T02:07:23;10.20;;;3.13;;
41755;SDS011;27435;48.480;9.258;2022-10-30T02:09:52;6.47;;;2.63;;
41755;SDS011;27435;48.480;9.258;2022-10-30T02:12:19;13.30;;;3.17;;
41755;SDS011;27435;48.480;9.258;2022-10-30T02:14:49;10.70;;;3.20;;
41755;SDS011;27435;48.480;9.258;2022-10-30T02:17:18;11.17;;;3.27;;
41755;SDS011;27435;48.480;9.258;2022-10-30T02:19:44;11.53;;;3.70;;
41755;SDS011;27435;48.480;9.258;2022-10-30T02:22:10;11.03;;;3.53;;
41755;SDS011;27435;48.480;9.258;2022-10-30T02:24:36;11.53;;;3.87;;
41755;SDS011;27435;48.480;9.258;2022-10-30T02:27:02;9.27;;;3.47;;
41755;SDS011;27435;48.480;9.258;2022-10-30T02:29:28;13.73;;;3.43;;
41755;SDS011;27435;48.480;9.258;2022-10-30T02:31:54;8.37;;;3.30;;
41755;SDS011;27435;48.480;9.258;2022-10-30T02:34:19;14.00;;;3.43;;
41755;SDS011;27435;48.480;9.258;2022-10-30T02:36:45;12.53;;;3.37;;
41755;SDS011;27435;48.480;9.258;2022-10-30T02:39:11;11.90;;;3.50;;
41755;SDS011;27435;48.480;9.258;2022-10-30T02:41:36;14.13;;;4.00;;
41755;SDS011;27435;48.480;9.258;2022-10-30T02:44:02;16.93;;;4.17;;
41755;SDS011;27435;48.480;9.258;2022-10-30T02:46:29;11.13;;;3.23;;
41755;SDS011;27435;48.480;9.258;2022-10-30T02:48:54;10.20;;;3.67;;
41755;SDS011;27435;48.480;9.258;2022-10-30T02:51:20;14.30;;;4.30;;
41755;SDS011;27435;48.480;9.258;2022-10-30T02:53:45;10.33;;;4.00;;
41755;SDS011;27435;48.480;9.258;2022-10-30T02:56:12;13.47;;;4.23;;
41755;SDS011;27435;48.480;9.258;2022-10-30T02:58:38;12.17;;;3.90;;
41755;SDS011;27435;48.480;9.258;2022-10-30T03:01:08;16.73;;;3.87;;
41755;SDS011;27435;48.480;9.258;2022-10-30T03:03:39;11.63;;;3.50;;
41755;SDS011;27435;48.480;9.258;2022-10-30T03:06:06;17.17;;;4.53;;
41755;SDS011;27435;48.480;9.258;2022-10-30T03:08:33;16.03;;;3.33;;
41755;SDS011;27435;48.480;9.258;2022-10-30T03:11:04;11.63;;;3.83;;
41755;SDS011;27435;48.480;9.258;2022-10-30T03:13:32;12.57;;;3.30;;
41755;SDS011;27435;48.480;9.258;2022-10-30T03:16:03;8.93;;;3.67;;
41755;SDS011;27435;48.480;9.258;2022-10-30T03:18:30;13.87;;;4.73;;
41755;SDS011;27435;48.480;9.258;2022-10-30T03:20:58;15.00;;;3.50;;
41755;SDS011;27435;48.480;9.258;2022-10-30T03:23:25;16.33;;;4.83;;
41755;SDS011;27435;48.480;9.258;2022-10-30T03:25:55;14.93;;;2.93;;
41755;SDS011;27435;48.480;9.258;2022-10-30T03:28:22;8.37;;;3.07;;
41755;SDS011;27435;48.480;9.258;2022-10-30T03:30:50;11.63;;;2.93;;
41755;SDS011;27435;48.480;9.258;2022-10-30T03:33:16;18.70;;;4.57;;
41755;SDS011;27435;48.480;9.258;2022-10-30T03:35:45;10.73;;;3.23;;
41755;SDS011;27435;48.480;9.258;2022-10-30T03:38:11;15.53;;;3.13;;
41755;SDS011;27435;48.480;9.258;2022-10-30T03:40:37;17.07;;;3.27;;
41755;SDS011;27435;48.480;9.258;2022-10-30T03:43:03;13.07;;;3.00;;
41755;SDS011;27435;48.480;9.258;2022-10-30T03:45:28;11.57;;;3.73;;
41755;SDS011;27435;48.480;9.258;2022-10-30T03:47:56;11.73;;;3.77;;
41755;SDS011;27435;48.480;9.258;2022-10-30T03:50:22;12.53;;;3.83;;
41755;SDS011;27435;48.480;9.258;2022-10-30T03:52:47;14.97;;;3.30;;
41755;SDS011;27435;48.480;9.258;2022-10-30T03:55:13;13.20;;;3.30;;
41755;SDS011;27435;48.480;9.258;2022-10-30T03:57:38;15.00;;;3.33;;
41755;SDS011;27435;48.480;9.258;2022-10-30T04:00:04;12.53;;;3.77;;
41755;SDS011;27435;48.480;9.258;2022-10-30T04:02:31;9.03;;;3.43;;
41755;SDS011;27435;48.480;9.258;2022-10-30T04:04:56;12.77;;;2.87;;
41755;SDS011;27435;48.480;9.258;2022-10-30T04:07:22;14.03;;;3.97;;
41755;SDS011;27435;48.480;9.258;2022-10-30T04:09:47;10.93;;;3.30;;
41755;SDS011;27435;48.480;9.258;2022-10-30T04:12:13;14.93;;;3.13;;
41755;SDS011;27435;48.480;9.258;2022-10-30T04:14:38;13.40;;;3.20;;
41755;SDS011;27435;48.480;9.258;2022-10-30T04:17:04;11.70;;;3.23;;
41755;SDS011;27435;48.480;9.258;2022-10-30T04:19:30;13.40;;;3.53;;
41755;SDS011;27435;48.480;9.258;2022-10-30T04:21:56;10.20;;;3.20;;
41755;SDS011;27435;48.480;9.258;2022-10-30T04:24:21;11.30;;;2.80;;
41755;SDS011;27435;48.480;9.258;2022-10-30T04:26:47;9.87;;;3.30;;
41755;SDS011;27435;48.480;9.258;2022-10-30T04:29:13;16.27;;;3.70;;
41755;SDS011;27435;48.480;9.258;2022-10-30T04:31:38;9.93;;;2.97;;
41755;SDS011;27435;48.480;9.258;2022-10-30T04:34:04;13.33;;;4.40;;
41755;SDS011;27435;48.480;9.258;2022-10-30T04:36:30;13.53;;;3.43;;
41755;SDS011;27435;48.480;9.258;2022-10-30T04:38:58;14.67;;;3.53;;
41755;SDS011;27435;48.480;9.258;2022-10-30T04:41:24;11.87;;;2.80;;
41755;SDS011;27435;48.480;9.258;2022-10-30T04:43:49;11.73;;;3.27;;
41755;SDS011;27435;48.480;9.258;2022-10-30T04:46:15;11.53;;;3.40;;
41755;SDS011;27435;48.480;9.258;2022-10-30T04:48:41;12.10;;;2.97;;
41755;SDS011;27435;48.480;9.258;2022-10-30T04:51:08;7.07;;;2.90;;
41755;SDS011;27435;48.480;9.258;2022-10-30T04:53:35;13.87;;;3.23;;
41755;SDS011;27435;48.480;9.258;2022-10-30T04:56:02;13.00;;;3.70;;
41755;SDS011;27435;48.480;9.258;2022-10-30T04:58:28;16.77;;;3.17;;
41755;SDS011;27435;48.480;9.258;2022-10-30T05:00:53;13.57;;;3.07;;
41755;SDS011;27435;48.480;9.258;2022-10-30T05:03:20;14.07;;;3.13;;
41755;SDS011;27435;48.480;9.258;2022-10-30T05:05:47;9.00;;;2.97;;
41755;SDS011;27435;48.480;9.258;2022-10-30T05:08:30;11.70;;;3.53;;
41755;SDS011;27435;48.480;9.258;2022-10-30T05:10:56;15.10;;;3.17;;
41755;SDS011;27435;48.480;9.258;2022-10-30T05:13:22;16.70;;;3.13;;
41755;SDS011;27435;48.480;9.258;2022-10-30T05:15:48;11.10;;;2.77;;
41755;SDS011;27435;48.480;9.258;2022-10-30T05:18:13;9.77;;;2.80;;
41755;SDS011;27435;48.480;9.258;2022-10-30T05:20:39;12.17;;;3.10;;
41755;SDS011;27435;48.480;9.258;2022-10-30T05:23:04;6.73;;;2.90;;
41755;SDS011;27435;48.480;9.258;2022-10-30T05:25:30;12.70;;;3.60;;
41755;SDS011;27435;48.480;9.258;2022-10-30T05:27:57;15.17;;;3.73;;
41755;SDS011;27435;48.480;9.258;2022-10-30T05:30:23;9.27;;;3.47;;
41755;SDS011;27435;48.480;9.258;2022-10-30T05:32:50;13.53;;;2.90;;
41755;SDS011;27435;48.480;9.258;2022-10-30T05:35:25;9.10;;;2.80;;
41755;SDS011;27435;48.480;9.258;2022-10-30T05:37:50;16.30;;;3.23;;
41755;SDS011;27435;48.480;9.258;2022-10-30T05:40:16;8.03;;;3.23;;
41755;SDS011;27435;48.480;9.258;2022-10-30T05:42:45;9.93;;;3.27;;
41755;SDS011;27435;48.480;9.258;2022-10-30T05:45:11;17.63;;;3.73;;
41755;SDS011;27435;48.480;9.258;2022-10-30T05:50:06;14.77;;;3.50;;
41755;SDS011;27435;48.480;9.258;2022-10-30T05:52:33;10.10;;;3.47;;
41755;SDS011;27435;48.480;9.258;2022-10-30T05:54:58;15.50;;;2.63;;
41755;SDS011;27435;48.480;9.258;2022-10-30T05:57:26;12.07;;;2.87;;
41755;SDS011;27435;48.480;9.258;2022-10-30T05:59:53;8.10;;;2.53;;
41755;SDS011;27435;48.480;9.258;2022-10-30T06:02:18;14.00;;;3.60;;
41755;SDS011;27435;48.480;9.258;2022-10-30T06:04:44;11.93;;;3.43;;
41755;SDS011;27435;48.480;9.258;2022-10-30T06:07:10;9.03;;;2.60;;
41755;SDS011;27435;48.480;9.258;2022-10-30T06:09:35;8.90;;;2.43;;
41755;SDS011;27435;48.480;9.258;2022-10-30T06:12:01;10.07;;;3.40;;
41755;SDS011;27435;48.480;9.258;2022-10-30T06:14:27;9.13;;;2.90;;
41755;SDS011;27435;48.480;9.258;2022-10-30T06:16:53;16.03;;;3.57;;
41755;SDS011;27435;48.480;9.258;2022-10-30T06:19:18;7.37;;;2.27;;
41755;SDS011;27435;48.480;9.258;2022-10-30T06:21:44;11.60;;;2.87;;
41755;SDS011;27435;48.480;9.258;2022-10-30T06:24:10;7.67;;;2.57;;
41755;SDS011;27435;48.480;9.258;2022-10-30T06:26:36;8.93;;;2.80;;
41755;SDS011;27435;48.480;9.258;2022-10-30T06:29:02;12.27;;;3.10;;
41755;SDS011;27435;48.480;9.258;2022-10-30T06:31:27;11.93;;;3.60;;
41755;SDS011;27435;48.480;9.258;2022-10-30T06:33:53;17.53;;;4.47;;
41755;SDS011;27435;48.480;9.258;2022-10-30T06:36:19;8.60;;;3.60;;
41755;SDS011;27435;48.480;9.258;2022-10-30T06:38:44;17.03;;;4.07;;
41755;SDS011;27435;48.480;9.258;2022-10-30T06:41:10;11.33;;;3.00;;
41755;SDS011;27435;48.480;9.258;2022-10-30T06:43:35;10.60;;;3.40;;
41755;SDS011;27435;48.480;9.258;2022-10-30T06:46:01;11.07;;;4.00;;
41755;SDS011;27435;48.480;9.258;2022-10-30T06:48:26;14.60;;;3.30;;
41755;SDS011;27435;48.480;9.258;2022-10-30T06:50:53;13.33;;;3.90;;
41755;SDS011;27435;48.480;9.258;2022-10-30T06:53:19;14.57;;;3.87;;
41755;SDS011;27435;48.480;9.258;2022-10-30T06:55:52;11.17;;;3.23;;
41755;SDS011;27435;48.480;9.258;2022-10-30T06:58:19;14.97;;;2.60;;
41755;SDS011;27435;48.480;9.258;2022-10-30T07:00:45;8.37;;;3.17;;
41755;SDS011;27435;48.480;9.258;2022-10-30T07:03:10;8.63;;;2.70;;
41755;SDS011;27435;48.480;9.258;2022-10-30T07:05:36;13.30;;;3.40;;
41755;SDS011;27435;48.480;9.258;2022-10-30T07:08:01;11.63;;;2.70;;
41755;SDS011;27435;48.480;9.258;2022-10-30T07:10:27;12.67;;;2.80;;
41755;SDS011;27435;48.480;9.258;2022-10-30T07:12:53;10.67;;;3.00;;
41755;SDS011;27435;48.480;9.258;2022-10-30T07:15:20;10.43;;;3.63;;
41755;SDS011;27435;48.480;9.258;2022-10-30T07:20:22;10.37;;;2.90;;
41755;SDS011;27435;48.480;9.258;2022-10-30T07:22:48;9.40;;;3.10;;
41755;SDS011;27435;48.480;9.258;2022-10-30T07:25:14;8.43;;;2.97;;
41755;SDS011;27435;48.480;9.258;2022-10-30T07:27:43;9.37;;;3.10;;
41755;SDS011;27435;48.480;9.258;2022-10-30T07:30:11;9.33;;;2.43;;
41755;SDS011;27435;48.480;9.258;2022-10-30T07:32:38;21.63;;;4.60;;
41755;SDS011;27435;48.480;9.258;2022-10-30T07:35:05;12.73;;;2.90;;
41755;SDS011;27435;48.480;9.258;2022-10-30T07:37:31;7.27;;;2.93;;
41755;SDS011;27435;48.480;9.258;2022-10-30T07:39:57;9.47;;;2.90;;
41755;SDS011;27435;48.480;9.258;2022-10-30T07:42:22;7.70;;;3.00;;
41755;SDS011;27435;48.480;9.258;2022-10-30T07:44:48;10.43;;;3.08;;
41755;SDS011;27435;48.480;9.258;2022-10-30T07:47:13;8.87;;;2.70;;
41755;SDS011;27435;48.480;9.258;2022-10-30T07:49:39;10.90;;;3.33;;
41755;SDS011;27435;48.480;9.258;2022-10-30T07:52:05;8.85;;;2.75;;
41755;SDS011;27435;48.480;9.258;2022-10-30T07:54:30;9.50;;;3.97;;
41755;SDS011;27435;48.480;9.258;2022-10-30T07:56:56;13.00;;;3.50;;
41755;SDS011;27435;48.480;9.258;2022-10-30T07:59:23;14.13;;;2.65;;
41755;SDS011;27435;48.480;9.258;2022-10-30T08:01:49;8.33;;;3.20;;
41755;SDS011;27435;48.480;9.258;2022-10-30T08:04:15;7.70;;;3.23;;
41755;SDS011;27435;48.480;9.258;2022-10-30T08:06:41;11.23;;;3.27;;
41755;SDS011;27435;48.480;9.258;2022-10-30T08:09:07;7.18;;;2.97;;
41755;SDS011;27435;48.480;9.258;2022-10-30T08:11:32;7.68;;;2.60;;
41755;SDS011;27435;48.480;9.258;2022-10-30T08:13:58;9.20;;;2.95;;
41755;SDS011;27435;48.480;9.258;2022-10-30T08:16:24;9.33;;;2.60;;
41755;SDS011;27435;48.480;9.258;2022-10-30T08:18:50;8.65;;;3.17;;
41755;SDS011;27435;48.480;9.258;2022-10-30T08:21:15;13.57;;;3.05;;
41755;SDS011;27435;48.480;9.258;2022-10-30T08:23:41;12.40;;;2.92;;
41755;SDS011;27435;48.480;9.258;2022-10-30T08:26:07;6.57;;;2.65;;
41755;SDS011;27435;48.480;9.258;2022-10-30T08:28:32;10.63;;;3.53;;
41755;SDS011;27435;48.480;9.258;2022-10-30T08:30:58;11.90;;;3.33;;
41755;SDS011;27435;48.480;9.258;2022-10-30T08:33:25;13.13;;;3.75;;
41755;SDS011;27435;48.480;9.258;2022-10-30T08:35:54;8.63;;;3.30;;
41755;SDS011;27435;48.480;9.258;2022-10-30T08:38:21;16.27;;;2.88;;
41755;SDS011;27435;48.480;9.258;2022-10-30T08:40:47;9.32;;;2.78;;
41755;SDS011;27435;48.480;9.258;2022-10-30T08:43:13;10.05;;;2.90;;
41755;SDS011;27435;48.480;9.258;2022-10-30T08:45:39;8.35;;;3.00;;
41755;SDS011;27435;48.480;9.258;2022-10-30T08:48:06;10.90;;;2.53;;
41755;SDS011;27435;48.480;9.258;2022-10-30T08:50:34;9.25;;;2.65;;
41755;SDS011;27435;48.480;9.258;2022-10-30T08:53:03;11.45;;;3.13;;
41755;SDS011;27435;48.480;9.258;2022-10-30T08:55:30;10.00;;;2.50;;
41755;SDS011;27435;48.480;9.258;2022-10-30T08:57:57;14.98;;;3.50;;
41755;SDS011;27435;48.480;9.258;2022-10-30T09:00:23;8.25;;;2.60;;
41755;SDS011;27435;48.480;9.258;2022-10-30T09:02:49;8.77;;;2.63;;
41755;SDS011;27435;48.480;9.258;2022-10-30T09:05:15;12.57;;;3.03;;
41755;SDS011;27435;48.480;9.258;2022-10-30T09:07:41;10.70;;;2.83;;
41755;SDS011;27435;48.480;9.258;2022-10-30T09:10:06;8.90;;;2.30;;
41755;SDS011;27435;48.480;9.258;2022-10-30T09:12:32;8.30;;;3.28;;
41755;SDS011;27435;48.480;9.258;2022-10-30T09:14:58;8.30;;;3.30;;
41755;SDS011;27435;48.480;9.258;2022-10-30T09:17:23;10.63;;;2.75;;
41755;SDS011;27435;48.480;9.258;2022-10-30T09:19:49;12.30;;;3.35;;
41755;SDS011;27435;48.480;9.258;2022-10-30T09:22:15;11.73;;;2.90;;
41755;SDS011;27435;48.480;9.258;2022-10-30T09:24:40;7.15;;;2.72;;
41755;SDS011;27435;48.480;9.258;2022-10-30T09:27:06;13.98;;;2.97;;
41755;SDS011;27435;48.480;9.258;2022-10-30T09:29:32;8.80;;;2.65;;
41755;SDS011;27435;48.480;9.258;2022-10-30T09:31:59;11.13;;;2.65;;
41755;SDS011;27435;48.480;9.258;2022-10-30T09:34:25;12.73;;;2.55;;
41755;SDS011;27435;48.480;9.258;2022-10-30T09:36:51;10.80;;;3.28;;
41755;SDS011;27435;48.480;9.258;2022-10-30T09:39:17;13.80;;;3.35;;
41755;SDS011;27435;48.480;9.258;2022-10-30T09:41:56;7.57;;;2.72;;
41755;SDS011;27435;48.480;9.258;2022-10-30T09:47:15;9.80;;;3.20;;
41755;SDS011;27435;48.480;9.258;2022-10-30T09:52:37;11.52;;;3.30;;
41755;SDS011;27435;48.480;9.258;2022-10-30T09:58:02;10.27;;;3.00;;
41755;SDS011;27435;48.480;9.258;2022-10-30T10:00:51;9.05;;;3.28;;
41755;SDS011;27435;48.480;9.258;2022-10-30T10:03:32;12.13;;;2.72;;
41755;SDS011;27435;48.480;9.258;2022-10-30T10:06:01;11.23;;;2.80;;
41755;SDS011;27435;48.480;9.258;2022-10-30T10:08:39;14.57;;;2.90;;
41755;SDS011;27435;48.480;9.258;2022-10-30T10:11:09;16.35;;;3.50;;
41755;SDS011;27435;48.480;9.258;2022-10-30T10:13:44;12.77;;;3.03;;
41755;SDS011;27435;48.480;9.258;2022-10-30T10:16:16;18.33;;;3.00;;
41755;SDS011;27435;48.480;9.258;2022-10-30T10:19:09;9.75;;;3.28;;
41755;SDS011;27435;48.480;9.258;2022-10-30T10:21:38;9.38;;;2.50;;
41755;SDS011;27435;48.480;9.258;2022-10-30T10:24:28;5.95;;;2.25;;
41755;SDS011;27435;48.480;9.258;2022-10-30T10:29:49;11.60;;;2.97;;
41755;SDS011;27435;48.480;9.258;2022-10-30T10:51:53;11.75;;;2.70;;
41755;SDS011;27435;48.480;9.258;2022-10-30T10:56:51;7.43;;;2.00;;
41755;SDS011;27435;48.480;9.258;2022-10-30T10:59:18;7.13;;;1.95;;
41755;SDS011;27435;48.480;9.258;2022-10-30T11:01:53;11.23;;;2.78;;
41755;SDS011;27435;48.480;9.258;2022-10-30T11:04:42;11.38;;;2.92;;
41755;SDS011;27435;48.480;9.258;2022-10-30T11:07:22;11.07;;;3.05;;
41755;SDS011;27435;48.480;9.258;2022-10-30T11:09:50;10.85;;;3.92;;
41755;SDS011;27435;48.480;9.258;2022-10-30T11:12:29;12.85;;;4.15;;
41755;SDS011;27435;48.480;9.258;2022-10-30T11:15:04;11.15;;;5.05;;
41755;SDS011;27435;48.480;9.258;2022-10-30T11:18:01;14.68;;;5.50;;
41755;SDS011;27435;48.480;9.258;2022-10-30T11:25:56;12.98;;;3.13;;
41755;SDS011;27435;48.480;9.258;2022-10-30T11:28:33;9.35;;;2.97;;
41755;SDS011;27435;48.480;9.258;2022-10-30T11:34:11;8.30;;;2.40;;
41755;SDS011;27435;48.480;9.258;2022-10-30T11:36:47;8.05;;;2.33;;
41755;SDS011;27435;48.480;9.258;2022-10-30T11:39:18;14.13;;;3.35;;
41755;SDS011;27435;48.480;9.258;2022-10-30T11:41:55;6.43;;;2.08;;
41755;SDS011;27435;48.480;9.258;2022-10-30T11:44:29;9.73;;;1.98;;
41755;SDS011;27435;48.480;9.258;2022-10-30T11:46:58;7.00;;;2.20;;
41755;SDS011;27435;48.480;9.258;2022-10-30T11:49:26;8.82;;;2.42;;
41755;SDS011;27435;48.480;9.258;2022-10-30T11:51:52;14.98;;;2.05;;
41755;SDS011;27435;48.480;9.258;2022-10-30T11:54:19;12.50;;;2.53;;
41755;SDS011;27435;48.480;9.258;2022-10-30T11:56:49;8.73;;;2.72;;
41755;SDS011;27435;48.480;9.258;2022-10-30T11:59:19;9.90;;;3.03;;
41755;SDS011;27435;48.480;9.258;2022-10-30T12:02:00;10.30;;;1.92;;
41755;SDS011;27435;48.480;9.258;2022-10-30T12:04:28;10.70;;;1.33;;
41755;SDS011;27435;48.480;9.258;2022-10-30T12:07:06;6.30;;;2.00;;
41755;SDS011;27435;48.480;9.258;2022-10-30T12:09:47;7.03;;;1.88;;
41755;SDS011;27435;48.480;9.258;2022-10-30T12:12:23;9.15;;;2.15;;
41755;SDS011;27435;48.480;9.258;2022-10-30T12:14:52;7.13;;;2.08;;
41755;SDS011;27435;48.480;9.258;2022-10-30T12:17:19;6.32;;;2.22;;
41755;SDS011;27435;48.480;9.258;2022-10-30T12:19:49;6.60;;;1.40;;
41755;SDS011;27435;48.480;9.258;2022-10-30T12:22:25;6.38;;;1.52;;
41755;SDS011;27435;48.480;9.258;2022-10-30T12:24:54;11.00;;;2.22;;
41755;SDS011;27435;48.480;9.258;2022-10-30T12:27:20;9.02;;;1.60;;
41755;SDS011;27435;48.480;9.258;2022-10-30T12:30:12;6.65;;;2.15;;
41755;SDS011;27435;48.480;9.258;2022-10-30T12:32:42;9.68;;;1.40;;
41755;SDS011;27435;48.480;9.258;2022-10-30T12:38:19;6.07;;;1.73;;
41755;SDS011;27435;48.480;9.258;2022-10-30T12:41:38;5.45;;;1.90;;
41755;SDS011;27435;48.480;9.258;2022-10-30T12:43:37;5.43;;;2.13;;
41755;SDS011;27435;48.480;9.258;2022-10-30T12:49:19;6.90;;;1.90;;
41755;SDS011;27435;48.480;9.258;2022-10-30T12:52:09;8.13;;;2.47;;
41755;SDS011;27435;48.480;9.258;2022-10-30T12:54:50;8.98;;;7.43;;
41755;SDS011;27435;48.480;9.258;2022-10-30T12:57:23;11.00;;;3.83;;
41755;SDS011;27435;48.480;9.258;2022-10-30T13:05:15;6.13;;;1.75;;
41755;SDS011;27435;48.480;9.258;2022-10-30T13:07:59;6.03;;;1.70;;
41755;SDS011;27435;48.480;9.258;2022-10-30T13:10:48;10.00;;;2.22;;
41755;SDS011;27435;48.480;9.258;2022-10-30T13:16:01;6.28;;;1.90;;
41755;SDS011;27435;48.480;9.258;2022-10-30T13:18:32;9.85;;;2.35;;
41755;SDS011;27435;48.480;9.258;2022-10-30T13:26:16;8.73;;;1.67;;
41755;SDS011;27435;48.480;9.258;2022-10-30T13:34:54;6.72;;;2.35;;
41755;SDS011;27435;48.480;9.258;2022-10-30T13:46:16;6.57;;;1.40;;
41755;SDS011;27435;48.480;9.258;2022-10-30T13:54:20;4.80;;;1.60;;
41755;SDS011;27435;48.480;9.258;2022-10-30T13:56:51;10.48;;;2.00;;
41755;SDS011;27435;48.480;9.258;2022-10-30T14:02:16;5.43;;;1.17;;
41755;SDS011;27435;48.480;9.258;2022-10-30T14:05:14;5.55;;;1.48;;
41755;SDS011;27435;48.480;9.258;2022-10-30T14:07:46;7.05;;;1.33;;
41755;SDS011;27435;48.480;9.258;2022-10-30T14:15:59;2.60;;;1.02;;
41755;SDS011;27435;48.480;9.258;2022-10-30T14:18:29;7.13;;;1.80;;
41755;SDS011;27435;48.480;9.258;2022-10-30T14:24:15;3.75;;;1.48;;
41755;SDS011;27435;48.480;9.258;2022-10-30T14:27:26;6.95;;;1.85;;
41755;SDS011;27435;48.480;9.258;2022-10-30T14:31:57;6.63;;;1.15;;
41755;SDS011;27435;48.480;9.258;2022-10-30T14:34:42;6.75;;;2.75;;
41755;SDS011;27435;48.480;9.258;2022-10-30T14:37:09;11.07;;;2.30;;
41755;SDS011;27435;48.480;9.258;2022-10-30T14:39:39;4.35;;;1.52;;
41755;SDS011;27435;48.480;9.258;2022-10-30T14:52:59;6.88;;;1.60;;
41755;SDS011;27435;48.480;9.258;2022-10-30T14:56:02;12.50;;;1.83;;
41755;SDS011;27435;48.480;9.258;2022-10-30T14:58:33;7.00;;;2.23;;
41755;SDS011;27435;48.480;9.258;2022-10-30T15:09:56;4.80;;;2.15;;
41755;SDS011;27435;48.480;9.258;2022-10-30T15:15:18;12.27;;;2.55;;
41755;SDS011;27435;48.480;9.258;2022-10-30T15:17:49;7.90;;;2.38;;
41755;SDS011;27435;48.480;9.258;2022-10-30T15:20:22;8.82;;;2.38;;
41755;SDS011;27435;48.480;9.258;2022-10-30T15:22:54;5.05;;;1.70;;
41755;SDS011;27435;48.480;9.258;2022-10-30T15:25:24;9.77;;;2.00;;
41755;SDS011;27435;48.480;9.258;2022-10-30T15:27:55;9.20;;;1.90;;
41755;SDS011;27435;48.480;9.258;2022-10-30T15:30:22;9.88;;;2.72;;
41755;SDS011;27435;48.480;9.258;2022-10-30T15:32:50;8.52;;;2.67;;
41755;SDS011;27435;48.480;9.258;2022-10-30T15:35:17;6.57;;;1.80;;
41755;SDS011;27435;48.480;9.258;2022-10-30T15:37:56;8.75;;;2.13;;
41755;SDS011;27435;48.480;9.258;2022-10-30T15:40:22;7.32;;;1.92;;
41755;SDS011;27435;48.480;9.258;2022-10-30T15:42:47;7.03;;;2.00;;
41755;SDS011;27435;48.480;9.258;2022-10-30T15:45:20;9.32;;;2.05;;
41755;SDS011;27435;48.480;9.258;2022-10-30T15:48:17;4.93;;;1.73;;
41755;SDS011;27435;48.480;9.258;2022-10-30T15:50:58;3.50;;;1.27;;
41755;SDS011;27435;48.480;9.258;2022-10-30T15:53:33;9.25;;;1.70;;
41755;SDS011;27435;48.480;9.258;2022-10-30T15:58:51;5.47;;;1.52;;
41755;SDS011;27435;48.480;9.258;2022-10-30T16:01:30;8.52;;;1.70;;
41755;SDS011;27435;48.480;9.258;2022-10-30T16:07:27;5.13;;;1.90;;
41755;SDS011;27435;48.480;9.258;2022-10-30T16:10:00;6.18;;;2.08;;
41755;SDS011;27435;48.480;9.258;2022-10-30T16:12:30;5.22;;;1.60;;
41755;SDS011;27435;48.480;9.258;2022-10-30T16:14:59;4.35;;;1.58;;
41755;SDS011;27435;48.480;9.258;2022-10-30T16:17:29;7.78;;;1.90;;
41755;SDS011;27435;48.480;9.258;2022-10-30T16:19:55;7.88;;;2.03;;
41755;SDS011;27435;48.480;9.258;2022-10-30T16:22:26;4.90;;;2.00;;
41755;SDS011;27435;48.480;9.258;2022-10-30T16:24:54;6.72;;;2.10;;
41755;SDS011;27435;48.480;9.258;2022-10-30T16:27:22;6.03;;;2.22;;
41755;SDS011;27435;48.480;9.258;2022-10-30T16:29:52;8.23;;;2.20;;
41755;SDS011;27435;48.480;9.258;2022-10-30T16:32:22;6.68;;;2.20;;
41755;SDS011;27435;48.480;9.258;2022-10-30T16:34:49;11.98;;;2.42;;
41755;SDS011;27435;48.480;9.258;2022-10-30T16:37:23;8.63;;;1.63;;
41755;SDS011;27435;48.480;9.258;2022-10-30T16:40:02;8.13;;;2.20;;
41755;SDS011;27435;48.480;9.258;2022-10-30T16:42:34;5.65;;;1.35;;
41755;SDS011;27435;48.480;9.258;2022-10-30T16:45:22;7.35;;;1.50;;
41755;SDS011;27435;48.480;9.258;2022-10-30T16:47:53;9.07;;;1.58;;
41755;SDS011;27435;48.480;9.258;2022-10-30T16:50:22;6.28;;;1.67;;
41755;SDS011;27435;48.480;9.258;2022-10-30T16:52:59;6.10;;;1.50;;
41755;SDS011;27435;48.480;9.258;2022-10-30T16:55:30;7.22;;;2.63;;
41755;SDS011;27435;48.480;9.258;2022-10-30T16:57:56;10.80;;;4.18;;
41755;SDS011;27435;48.480;9.258;2022-10-30T17:00:24;36.00;;;14.68;;
41755;SDS011;27435;48.480;9.258;2022-10-30T17:02:51;44.90;;;19.70;;
41755;SDS011;27435;48.480;9.258;2022-10-30T17:05:19;68.93;;;31.70;;
41755;SDS011;27435;48.480;9.258;2022-10-30T17:10:28;25.08;;;12.48;;
41755;SDS011;27435;48.480;9.258;2022-10-30T17:15:55;26.38;;;10.80;;
41755;SDS011;27435;48.480;9.258;2022-10-30T17:18:21;19.77;;;8.32;;
41755;SDS011;27435;48.480;9.258;2022-10-30T17:21:12;16.10;;;6.50;;
41755;SDS011;27435;48.480;9.258;2022-10-30T17:23:44;12.93;;;4.63;;
41755;SDS011;27435;48.480;9.258;2022-10-30T17:26:12;16.27;;;5.07;;
41755;SDS011;27435;48.480;9.258;2022-10-30T17:28:38;13.73;;;5.53;;
41755;SDS011;27435;48.480;9.258;2022-10-30T17:31:49;13.13;;;5.57;;
41755;SDS011;27435;48.480;9.258;2022-10-30T17:36:37;9.90;;;4.28;;